^^
Saratoga-Weather Station Historical Data
Daily Summary for September 10, 2020 Units:  Metric    English   Both
Daily Weekly Monthly Yearly Custom
  High: Low: Average:
Temperature: 12.9 °C 6.1 °C 8.8 °C
Dew Point: 10.9 °C 3.5 °C 5.8 °C
Humidity: 93% 66% 82%
Wind Speed: 41.7km/h km/h 13.4km/h
Wind Gust: 54.7km/h - -
Wind- - West
Pressure: 1009.1 hPa 996.6 hPa -
Precipitation: 31.8 mm    
Historical Graphs
 
 
Tabular Data for September 10, 2020
Time Temperature Dew Point Pressure Wind Wind Speed Wind Gust Humidity Rainfall Rate (Hourly) solar
00:02 11 °C 9.9 °C 999.0 hPa WNW 4.7 km/h 17.7 km/h 93% 1.5 mm 0 W/m2
00:07 11 °C 9.9 °C 998.6 hPa South 3.2 km/h 33.8 km/h 93% 1.3 mm 0 W/m2
00:12 11.1 °C 10 °C 998.6 hPa ESE 9.7 km/h 27.4 km/h 93% 1.5 mm 0 W/m2
00:17 11.1 °C 10 °C 998.3 hPa WSW 6.4 km/h 14.5 km/h 93% 1.5 mm 0 W/m2
00:22 11.1 °C 10 °C 998.3 hPa NNW 9.7 km/h 20.9 km/h 93% 1.5 mm 0 W/m2
00:27 11.2 °C 10.1 °C 998.6 hPa NW 27.4 km/h 27.4 km/h 93% 1.5 mm 0 W/m2
00:32 11.2 °C 10.1 °C 998.3 hPa NW 14.3 km/h 17.7 km/h 93% 1.5 mm 0 W/m2
00:37 11.2 °C 10.1 °C 998.3 hPa WNW 11.1 km/h 12.9 km/h 93% 1.5 mm 0 W/m2
00:42 11.2 °C 10.1 °C 998.0 hPa NW 7.9 km/h 30.6 km/h 93% 1.3 mm 0 W/m2
00:47 11.3 °C 10.2 °C 998.0 hPa West 9.7 km/h 22.5 km/h 93% 1.5 mm 0 W/m2
00:52 11.3 °C 10.2 °C 998.0 hPa North 16.3 km/h 17.7 km/h 93% 1.3 mm 0 W/m2
00:58 11.4 °C 10.3 °C 998.0 hPa WNW 7.9 km/h 25.7 km/h 93% 1.3 mm 0 W/m2
01:03 11.5 °C 10.4 °C 997.6 hPa ESE 22.7 km/h 24.1 km/h 93% 1.0 mm 0 W/m2
01:08 11.6 °C 10.5 °C 997.3 hPa SSW 4.7 km/h 17.7 km/h 93% 1.0 mm 0 W/m2
01:13 11.7 °C 10.6 °C 997.3 hPa East 4.7 km/h 9.7 km/h 93% 1.3 mm 0 W/m2
01:18 11.7 °C 10.6 °C 997.3 hPa NW 13 km/h 20.9 km/h 93% 1.5 mm 0 W/m2
01:23 11.7 °C 10.6 °C 997.3 hPa ESE 6.4 km/h 27.4 km/h 93% 1.8 mm 0 W/m2
01:28 11.8 °C 10.5 °C 997.3 hPa WNW 27.4 km/h 32.2 km/h 92% 1.8 mm 0 W/m2
01:33 12 °C 10.7 °C 997.3 hPa ESE 13 km/h 45.1 km/h 92% 2.0 mm 0 W/m2
01:38 12.1 °C 10.8 °C 997.6 hPa WSW 14.3 km/h 20.9 km/h 92% 2.0 mm 0 W/m2
01:43 12.2 °C 10.8 °C 997.0 hPa WNW 11.1 km/h 45.1 km/h 91% 2.0 mm 0 W/m2
01:48 12.3 °C 10.9 °C 997.6 hPa West 13 km/h 37 km/h 91% 2.0 mm 0 W/m2
01:53 12.3 °C 10.9 °C 997.0 hPa West 6.4 km/h 40.2 km/h 91% 2.3 mm 0 W/m2
01:58 12.3 °C 10.9 °C 997.3 hPa WNW 14.3 km/h 19.3 km/h 91% 2.3 mm 0 W/m2
02:03 12.3 °C 10.9 °C 997.0 hPa WSW 13 km/h 17.7 km/h 91% 2.3 mm 0 W/m2
02:08 12.3 °C 10.7 °C 996.6 hPa West 24.1 km/h 24.1 km/h 90% 2.3 mm 0 W/m2
02:13 12.4 °C 10.8 °C 997.0 hPa West 9.7 km/h 54.7 km/h 90% 1.8 mm 0 W/m2
02:18 12.5 °C 10.7 °C 997.0 hPa NW 6.4 km/h 24.1 km/h 89% 1.3 mm 0 W/m2
02:23 12.6 °C 10.8 °C 997.0 hPa WSW 3.2 km/h 35.4 km/h 89% 1.0 mm 0 W/m2
02:28 12.7 °C 10.6 °C 997.0 hPa West 14.3 km/h 30.6 km/h 87% 1.0 mm 0 W/m2
02:33 12.8 °C 10.5 °C 996.6 hPa NW 16.3 km/h 24.1 km/h 86% 0.5 mm 0 W/m2
02:38 12.8 °C 10.5 °C 997.0 hPa NNW 7.9 km/h 17.7 km/h 86% 0.5 mm 0 W/m2
02:43 12.9 °C 10.6 °C 997.0 hPa West 16.3 km/h 48.3 km/h 86% 0.5 mm 0 W/m2
02:48 12.9 °C 10.6 °C 997.6 hPa WSW 14.3 km/h 33.8 km/h 86% 0.2 mm 0 W/m2
02:53 12.4 °C 9.8 °C 997.6 hPa NNW 19.5 km/h 45.1 km/h 84% 0.2 mm 0 W/m2
02:58 11.4 °C 9.1 °C 997.3 hPa WNW 17.7 km/h 37 km/h 86% 1.5 mm 0 W/m2
03:03 10.8 °C 9.1 °C 997.3 hPa West 22.7 km/h 24.1 km/h 89% 2.3 mm 0 W/m2
03:08 10.6 °C 9 °C 997.6 hPa WSW 30.6 km/h 49.9 km/h 90% 2.8 mm 0 W/m2
03:13 10.3 °C 8.9 °C 998.0 hPa WNW 13 km/h 27.4 km/h 91% 3.3 mm 0 W/m2
03:18 10.3 °C 8.9 °C 997.6 hPa West 22.7 km/h 37 km/h 91% 3.6 mm 0 W/m2
03:23 10.2 °C 8.8 °C 997.6 hPa SW 13 km/h 48.3 km/h 91% 3.8 mm 0 W/m2
03:28 10.3 °C 8.9 °C 997.6 hPa NW 17.7 km/h 20.9 km/h 91% 4.1 mm 0 W/m2
03:33 10.3 °C 8.9 °C 997.6 hPa West 16.3 km/h 48.3 km/h 91% 4.1 mm 0 W/m2
03:38 10.3 °C 8.7 °C 997.6 hPa WNW 4.7 km/h 30.6 km/h 90% 4.1 mm 0 W/m2
03:43 10.2 °C 8.5 °C 997.6 hPa WSW 11.1 km/h 24.1 km/h 89% 4.1 mm 0 W/m2
03:49 10.1 °C 8.4 °C 997.3 hPa West 13 km/h 33.8 km/h 89% 4.1 mm 0 W/m2
03:54 9.9 °C 8.3 °C 997.6 hPa WSW 27.4 km/h 32.2 km/h 90% 3.8 mm 0 W/m2
03:59 9.8 °C 8.4 °C 998.0 hPa WSW 14.3 km/h 40.2 km/h 91% 3.3 mm 0 W/m2
04:04 9.7 °C 8.3 °C 997.3 hPa WNW 20.9 km/h 46.7 km/h 91% 3.6 mm 0 W/m2
04:09 9.5 °C 8.1 °C 997.6 hPa West 16.3 km/h 24.1 km/h 91% 3.6 mm 0 W/m2
04:14 9.4 °C 8.2 °C 997.6 hPa NW 27.4 km/h 46.7 km/h 92% 4.3 mm 0 W/m2
04:19 9.4 °C 8.2 °C 998.3 hPa West 20.9 km/h 27.4 km/h 92% 5.1 mm 0 W/m2
04:24 9.2 °C 8 °C 998.0 hPa WSW 13 km/h 35.4 km/h 92% 6.1 mm 0 W/m2
04:29 9.1 °C 7.9 °C 998.0 hPa West 19.5 km/h 24.1 km/h 92% 6.6 mm 0 W/m2
04:34 9.1 °C 8 °C 997.6 hPa WNW 16.3 km/h 27.4 km/h 93% 7.4 mm 0 W/m2
04:39 9.1 °C 8 °C 997.6 hPa NW 30.6 km/h 30.6 km/h 93% 8.1 mm 0 W/m2
04:44 9.1 °C 8 °C 998.0 hPa WSW 14.3 km/h 16.1 km/h 93% 8.9 mm 0 W/m2
04:49 9.1 °C 8 °C 998.0 hPa West 14.3 km/h 27.4 km/h 93% 9.4 mm 0 W/m2
04:54 9.1 °C 8 °C 998.3 hPa NNW 14.3 km/h 29 km/h 93% 9.4 mm 0 W/m2
04:59 9.2 °C 8.1 °C 998.6 hPa WNW 27.4 km/h 45.1 km/h 93% 9.1 mm 0 W/m2
05:04 9.2 °C 7.8 °C 999.3 hPa West 14.3 km/h 32.2 km/h 91% 8.9 mm 0 W/m2
05:09 9.2 °C 7.5 °C 999.0 hPa West 16.3 km/h 41.8 km/h 89% 8.4 mm 0 W/m2
05:14 9.1 °C 7.1 °C 999.3 hPa WNW 14.3 km/h 37 km/h 87% 7.6 mm 0 W/m2
05:19 8.9 °C 6.5 °C 999.0 hPa WSW 33.8 km/h 43.5 km/h 85% 6.1 mm 0 W/m2
05:25 9.1 °C 6.7 °C 999.7 hPa WNW 35.2 km/h 35.4 km/h 85% 5.1 mm 0 W/m2
05:30 9.2 °C 6.5 °C 999.7 hPa WNW 6.4 km/h 29 km/h 83% 4.3 mm 0 W/m2
05:35 9.3 °C 6.6 °C 999.7 hPa West 14.3 km/h 43.5 km/h 83% 3.8 mm 0 W/m2
05:40 9.3 °C 6.4 °C 999.7 hPa WNW 17.7 km/h 27.4 km/h 82% 2.8 mm 0 W/m2
05:45 9.4 °C 6.5 °C 999.3 hPa SW 6.4 km/h 41.8 km/h 82% 2.0 mm 0 W/m2
05:50 9.4 °C 6.5 °C 999.7 hPa WNW 22.7 km/h 27.4 km/h 82% 1.5 mm 0 W/m2
05:55 9.6 °C 6.5 °C 1000.0 hPa WNW 17.7 km/h 32.2 km/h 81% 1.5 mm 0 W/m2
06:00 9.6 °C 6.7 °C 999.7 hPa West 25.9 km/h 25.7 km/h 82% 1.0 mm 0 W/m2
06:05 9.7 °C 6.8 °C 999.3 hPa West 16.3 km/h 22.5 km/h 82% 0.5 mm 0 W/m2
06:10 9.7 °C 6.6 °C 999.7 hPa West 9.7 km/h 19.3 km/h 81% 0.2 mm 0 W/m2
06:15 9.8 °C 6.5 °C 1000.0 hPa SSW 17.7 km/h 25.7 km/h 80% 0.0 mm 0 W/m2
06:20 9.7 °C 6.6 °C 1000.0 hPa WNW 16.3 km/h 33.8 km/h 81% 0.0 mm 0 W/m2
06:25 9.4 °C 6.7 °C 1000.0 hPa WNW 7.9 km/h 19.3 km/h 83% 0.2 mm 0 W/m2
06:30 9.3 °C 6.7 °C 1000.3 hPa NW 17.7 km/h 29 km/h 84% 0.2 mm 0 W/m2
06:35 9.1 °C 6.5 °C 1000.0 hPa WNW 14.3 km/h 29 km/h 84% 0.2 mm 0 W/m2
06:40 8.9 °C 6.5 °C 1000.0 hPa WNW 6.4 km/h 29 km/h 85% 0.5 mm 0 W/m2
06:45 8.9 °C 6.3 °C 1000.3 hPa WSW 4.7 km/h 30.6 km/h 84% 0.5 mm 0 W/m2
06:50 9 °C 6.4 °C 1000.7 hPa West 14.3 km/h 29 km/h 84% 0.5 mm 0 W/m2
06:55 9.1 °C 6.2 °C 1000.7 hPa WSW 20.9 km/h 49.9 km/h 82% 0.5 mm 0 W/m2
07:00 9.2 °C 6.1 °C 1000.7 hPa West 22.7 km/h 30.6 km/h 81% 0.5 mm 0 W/m2
07:05 9.2 °C 5.9 °C 1001.0 hPa West 24.1 km/h 37 km/h 80% 0.5 mm 0 W/m2
07:10 9.2 °C 5.9 °C 1001.0 hPa West 19.5 km/h 22.5 km/h 80% 0.5 mm 0 W/m2
07:15 9.2 °C 5.9 °C 1001.4 hPa West 9.7 km/h 24.1 km/h 80% 0.5 mm 0 W/m2
07:20 9.2 °C 5.7 °C 1001.4 hPa WSW 20.9 km/h 33.8 km/h 79% 0.5 mm 0 W/m2
07:25 9.1 °C 5.7 °C 1001.4 hPa West 17.7 km/h 20.9 km/h 79% 0.2 mm 0 W/m2
07:30 9.1 °C 5.5 °C 1002.0 hPa West 6.4 km/h 19.3 km/h 78% 0.2 mm 0 W/m2
07:35 9.1 °C 5.5 °C 1001.7 hPa West 14.3 km/h 24.1 km/h 78% 0.2 mm 0 W/m2
07:40 9.1 °C 5.3 °C 1001.7 hPa West 16.3 km/h 16.1 km/h 77% 0.0 mm 0 W/m2
07:45 9.1 °C 5.3 °C 1002.0 hPa NW 19.5 km/h 33.8 km/h 77% 0.0 mm 0 W/m2
07:50 9.1 °C 5.1 °C 1002.0 hPa WNW 11.1 km/h 43.5 km/h 76% 0.0 mm 0 W/m2
07:55 8.9 °C 5.1 °C 1002.7 hPa WSW 14.3 km/h 25.7 km/h 77% 0.0 mm 0 W/m2
08:01 8.6 °C 5.2 °C 1003.0 hPa West 20.9 km/h 48.3 km/h 79% 0.0 mm 0 W/m2
08:06 8.1 °C 5.2 °C 1003.0 hPa WNW 9.7 km/h 25.7 km/h 82% 0.0 mm 5 W/m2
08:11 8 °C 5.3 °C 1003.0 hPa West 16.3 km/h 29 km/h 83% 0.0 mm 11 W/m2
08:16 8.2 °C 4.8 °C 1003.4 hPa West 27.4 km/h 41.8 km/h 79% 0.0 mm 21 W/m2
08:21 8.4 °C 4.4 °C 1003.7 hPa West 35.2 km/h 35.4 km/h 76% 0.2 mm 26 W/m2
08:26 8.4 °C 4.2 °C 1003.7 hPa West 17.7 km/h 32.2 km/h 75% 0.2 mm 28 W/m2
08:31 8.4 °C 4.2 °C 1003.7 hPa WNW 7.9 km/h 19.3 km/h 75% 0.2 mm 30 W/m2
08:36 8.3 °C 4.1 °C 1004.1 hPa WNW 4.7 km/h 17.7 km/h 75% 0.2 mm 25 W/m2
08:41 8.3 °C 4.1 °C 1004.4 hPa SW 32 km/h 41.8 km/h 75% 0.2 mm 51 W/m2
08:46 8.4 °C 4 °C 1004.4 hPa West 14.3 km/h 27.4 km/h 74% 0.2 mm 70 W/m2
08:51 8.4 °C 4.2 °C 1004.7 hPa SW 22.7 km/h 25.7 km/h 75% 0.2 mm 77 W/m2
08:56 8.5 °C 4.3 °C 1004.7 hPa WSW 13 km/h 40.2 km/h 75% 0.2 mm 67 W/m2
09:01 8.5 °C 4.3 °C 1004.7 hPa West 20.9 km/h 22.5 km/h 75% 0.2 mm 35 W/m2
09:06 8.5 °C 4.1 °C 1004.7 hPa WNW 9.7 km/h 25.7 km/h 74% 0.2 mm 18 W/m2
09:11 8.4 °C 3.8 °C 1004.7 hPa WSW 14.3 km/h 24.1 km/h 73% 0.2 mm 25 W/m2
09:16 8.4 °C 3.8 °C 1005.1 hPa NNW 14.3 km/h 20.9 km/h 73% 0.2 mm 35 W/m2
09:21 8.2 °C 3.6 °C 1005.4 hPa West 14.3 km/h 29 km/h 73% 0.0 mm 76 W/m2
09:26 8.1 °C 3.6 °C 1005.4 hPa West 16.3 km/h 30.6 km/h 73% 0.0 mm 58 W/m2
09:31 7.9 °C 3.6 °C 1005.8 hPa SW 14.3 km/h 27.4 km/h 74% 0.0 mm 58 W/m2
09:36 7.9 °C 3.6 °C 1005.8 hPa West 13 km/h 24.1 km/h 74% 0.0 mm 163 W/m2
09:41 8 °C 3.8 °C 1006.1 hPa WSW 7.9 km/h 22.5 km/h 75% 0.0 mm 236 W/m2
09:46 8.2 °C 3.8 °C 1005.8 hPa NNW 13 km/h 22.5 km/h 74% 0.0 mm 188 W/m2
09:51 8.3 °C 4.1 °C 1006.1 hPa West 4.7 km/h 30.6 km/h 75% 0.0 mm 28 W/m2
09:56 8.2 °C 4.2 °C 1006.4 hPa WNW 14.3 km/h 25.7 km/h 76% 0.0 mm 12 W/m2
10:01 7.7 °C 4.3 °C 1006.1 hPa WNW 6.4 km/h 35.4 km/h 79% 0.2 mm 11 W/m2
10:07 7.2 °C 4.3 °C 1006.4 hPa West 20.9 km/h 38.6 km/h 82% 0.5 mm 67 W/m2
10:12 6.7 °C 4.2 °C 1006.8 hPa NW 19.5 km/h 29 km/h 84% 0.5 mm 14 W/m2
10:17 6.4 °C 3.7 °C 1006.4 hPa WSW 30.6 km/h 37 km/h 83% 0.5 mm 14 W/m2
10:22 6.4 °C 3.7 °C 1006.4 hPa West 20.9 km/h 35.4 km/h 83% 0.5 mm 44 W/m2
10:27 6.4 °C 3.7 °C 1006.8 hPa WSW 16.3 km/h 16.1 km/h 83% 0.5 mm 40 W/m2
10:32 6.3 °C 3.8 °C 1007.1 hPa WSW 14.3 km/h 35.4 km/h 84% 0.5 mm 33 W/m2
10:37 6.2 °C 3.9 °C 1007.1 hPa WNW 13 km/h 25.7 km/h 85% 0.5 mm 95 W/m2
10:42 6.3 °C 4 °C 1007.1 hPa SW 14.3 km/h 25.7 km/h 85% 0.5 mm 156 W/m2
10:47 6.5 °C 4.2 °C 1007.5 hPa West 6.4 km/h 19.3 km/h 85% 0.5 mm 181 W/m2
10:52 6.8 °C 4.5 °C 1007.8 hPa West 14.3 km/h 16.1 km/h 85% 0.5 mm 211 W/m2
10:57 7 °C 4.7 °C 1007.8 hPa WSW 7.9 km/h 19.3 km/h 85% 0.5 mm 216 W/m2
11:02 7.1 °C 4.6 °C 1007.8 hPa NW 7.9 km/h 22.5 km/h 84% 0.5 mm 192 W/m2
11:07 7.2 °C 4.7 °C 1007.8 hPa WSW 16.3 km/h 25.7 km/h 84% 0.2 mm 172 W/m2
11:12 7.3 °C 4.6 °C 1007.8 hPa NNW 37 km/h 37 km/h 83% 0.2 mm 155 W/m2
11:17 7.5 °C 4.6 °C 1008.1 hPa WNW 7.9 km/h 20.9 km/h 82% 0.0 mm 149 W/m2
11:23 7.7 °C 4.5 °C 1007.8 hPa West 24.1 km/h 29 km/h 80% 0.0 mm 127 W/m2
11:28 7.8 °C 4.2 °C 1008.5 hPa West 27.4 km/h 46.7 km/h 78% 0.0 mm 109 W/m2
11:33 8 °C 4.2 °C 1008.5 hPa NW 16.3 km/h 24.1 km/h 77% 0.0 mm 123 W/m2
11:38 8.1 °C 4.3 °C 1008.5 hPa NW 17.7 km/h 29 km/h 77% 0.0 mm 179 W/m2
11:43 8.2 °C 4.2 °C 1008.5 hPa NW 19.5 km/h 19.3 km/h 76% 0.0 mm 146 W/m2
11:48 8.3 °C 4.3 °C 1008.5 hPa West 11.1 km/h 11.3 km/h 76% 0.0 mm 155 W/m2
11:53 8.4 °C 4 °C 1008.5 hPa WNW 19.5 km/h 29 km/h 74% 0.0 mm 190 W/m2
11:58 8.5 °C 3.7 °C 1009.1 hPa WSW 22.7 km/h 43.5 km/h 72% 0.0 mm 151 W/m2
12:03 8.7 °C 3.5 °C 1009.1 hPa SW 7.9 km/h 29 km/h 70% 0.0 mm 181 W/m2
12:08 8.7 °C 3.5 °C 1008.8 hPa NW 25.9 km/h 27.4 km/h 70% 0.0 mm 183 W/m2
12:13 8.8 °C 3.6 °C 1008.8 hPa NNW 14.3 km/h 20.9 km/h 70% 0.0 mm 202 W/m2
12:18 9 °C 3.6 °C 1008.8 hPa WNW 14.3 km/h 24.1 km/h 69% 0.0 mm 346 W/m2
12:23 9.1 °C 3.5 °C 1008.8 hPa WNW 16.3 km/h 37 km/h 68% 0.0 mm 178 W/m2
12:28 9.2 °C 3.6 °C 1009.1 hPa NW 27.4 km/h 27.4 km/h 68% 0.0 mm 253 W/m2
12:33 9.3 °C 3.7 °C 1008.8 hPa NNW 22.7 km/h 22.5 km/h 68% 0.0 mm 123 W/m2
12:38 9.4 °C 3.8 °C 1008.8 hPa NW 20.9 km/h 24.1 km/h 68% 0.0 mm 134 W/m2
12:43 9.4 °C 3.8 °C 1009.1 hPa WSW 11.1 km/h 16.1 km/h 68% 0.0 mm 243 W/m2
12:48 9.4 °C 3.8 °C 1008.8 hPa West 16.3 km/h 24.1 km/h 68% 0.0 mm 211 W/m2
12:53 9.6 °C 4.2 °C 1008.8 hPa WSW 33.8 km/h 33.8 km/h 69% 0.0 mm 214 W/m2
12:58 9.5 °C 3.9 °C 1008.8 hPa South 11.1 km/h 20.9 km/h 68% 0.0 mm 176 W/m2
13:03 9.5 °C 3.7 °C 1008.8 hPa WNW 14.3 km/h 40.2 km/h 67% 0.0 mm 181 W/m2
13:08 9.5 °C 4.1 °C 1008.8 hPa NW 14.3 km/h 30.6 km/h 69% 0.0 mm 204 W/m2
13:13 9.6 °C 4 °C 1008.8 hPa WSW 4.7 km/h 35.4 km/h 68% 0.0 mm 207 W/m2
13:18 9.6 °C 4.2 °C 1008.8 hPa WSW 7.9 km/h 16.1 km/h 69% 0.0 mm 200 W/m2
13:23 9.6 °C 4.2 °C 1009.1 hPa NNW 19.5 km/h 33.8 km/h 69% 0.0 mm 223 W/m2
13:28 9.6 °C 4 °C 1009.1 hPa WNW 16.3 km/h 22.5 km/h 68% 0.0 mm 111 W/m2
13:33 9.5 °C 4.1 °C 1009.1 hPa SSW 11.1 km/h 30.6 km/h 69% 0.0 mm 123 W/m2
13:38 9.4 °C 4 °C 1008.8 hPa West 20.9 km/h 30.6 km/h 69% 0.0 mm 113 W/m2
13:43 9.4 °C 3.8 °C 1009.1 hPa WSW 16.3 km/h 19.3 km/h 68% 0.0 mm 151 W/m2
13:48 9.5 °C 3.9 °C 1009.1 hPa West 9.7 km/h 17.7 km/h 68% 0.0 mm 125 W/m2
13:53 9.4 °C 4 °C 1008.8 hPa NW 14.3 km/h 22.5 km/h 69% 0.0 mm 149 W/m2
13:58 9.5 °C 4.1 °C 1008.8 hPa WSW 13 km/h 16.1 km/h 69% 0.0 mm 244 W/m2
14:03 9.6 °C 4.2 °C 1008.5 hPa North 6.4 km/h 14.5 km/h 69% 0.0 mm 174 W/m2
14:09 9.6 °C 4 °C 1008.5 hPa NW 7.9 km/h 16.1 km/h 68% 0.0 mm 156 W/m2
14:14 9.6 °C 4.2 °C 1008.5 hPa WNW 17.7 km/h 19.3 km/h 69% 0.0 mm 163 W/m2
14:19 9.6 °C 4.2 °C 1008.5 hPa SE 7.9 km/h 11.3 km/h 69% 0.0 mm 116 W/m2
14:24 9.6 °C 4.2 °C 1008.1 hPa West 3.2 km/h 14.5 km/h 69% 0.0 mm 151 W/m2
14:29 9.6 °C 4 °C 1008.1 hPa West 11.1 km/h 20.9 km/h 68% 0.0 mm 146 W/m2
14:34 9.6 °C 4 °C 1008.1 hPa West 13 km/h 17.7 km/h 68% 0.0 mm 149 W/m2
14:39 9.5 °C 3.7 °C 1008.1 hPa SSE 9.7 km/h 20.9 km/h 67% 0.0 mm 120 W/m2
14:44 9.5 °C 3.5 °C 1007.8 hPa WSW 17.7 km/h 25.7 km/h 66% 0.0 mm 142 W/m2
14:49 9.4 °C 3.6 °C 1007.8 hPa WSW 11.1 km/h 11.3 km/h 67% 0.0 mm 165 W/m2
14:54 9.5 °C 3.7 °C 1007.8 hPa West 19.5 km/h 19.3 km/h 67% 0.0 mm 183 W/m2
14:59 9.6 °C 3.8 °C 1007.8 hPa NNW 6.4 km/h 19.3 km/h 67% 0.0 mm 174 W/m2
15:04 9.6 °C 3.8 °C 1007.8 hPa WNW 3.2 km/h 22.5 km/h 67% 0.0 mm 107 W/m2
15:09 9.6 °C 4 °C 1007.5 hPa NW 16.3 km/h 16.1 km/h 68% 0.0 mm 74 W/m2
15:14 9.5 °C 3.9 °C 1007.5 hPa WNW 6.4 km/h 9.7 km/h 68% 0.0 mm 40 W/m2
15:19 9.4 °C 3.8 °C 1007.8 hPa WNW 4.7 km/h 27.4 km/h 68% 0.0 mm 30 W/m2
15:24 9.2 °C 4 °C 1007.5 hPa West 6.4 km/h 9.7 km/h 70% 0.0 mm 33 W/m2
15:29 9.1 °C 4.1 °C 1007.5 hPa WNW 3.2 km/h 25.7 km/h 71% 0.0 mm 25 W/m2
15:34 9.1 °C 4.1 °C 1007.1 hPa NE 6.4 km/h 8 km/h 71% 0.0 mm 21 W/m2
15:39 9.1 °C 4.1 °C 1007.1 hPa WSW 3.2 km/h 20.9 km/h 71% 0.0 mm 33 W/m2
15:44 9.1 °C 4.1 °C 1006.8 hPa NNW 9.7 km/h 16.1 km/h 71% 0.0 mm 26 W/m2
15:49 9.2 °C 4 °C 1006.4 hPa SSE 14.3 km/h 19.3 km/h 70% 0.0 mm 33 W/m2
15:54 9.3 °C 3.7 °C 1006.4 hPa NW 3.2 km/h 20.9 km/h 68% 0.0 mm 42 W/m2
15:59 9.3 °C 3.7 °C 1006.4 hPa NW 14.3 km/h 20.9 km/h 68% 0.0 mm 44 W/m2
16:04 9.4 °C 3.8 °C 1006.4 hPa NNW 7.9 km/h 25.7 km/h 68% 0.0 mm 39 W/m2
16:09 9.3 °C 3.7 °C 1006.4 hPa West 13 km/h 16.1 km/h 68% 0.0 mm 21 W/m2
16:14 9.3 °C 3.7 °C 1006.4 hPa WNW 11.1 km/h 22.5 km/h 68% 0.0 mm 28 W/m2
16:19 9.2 °C 3.8 °C 1006.1 hPa SE 6.4 km/h 17.7 km/h 69% 0.0 mm 23 W/m2
16:24 9.2 °C 3.8 °C 1005.8 hPa NE 6.4 km/h 14.5 km/h 69% 0.0 mm 39 W/m2
16:29 9.2 °C 4 °C 1005.8 hPa NW 1.4 km/h 11.3 km/h 70% 0.0 mm 40 W/m2
16:34 9.2 °C 3.8 °C 1005.8 hPa SE 4.7 km/h 16.1 km/h 69% 0.0 mm 58 W/m2
16:39 9.2 °C 3.8 °C 1005.1 hPa NE 6.4 km/h 11.3 km/h 69% 0.0 mm 42 W/m2
16:44 9.2 °C 3.8 °C 1005.1 hPa WNW 3.2 km/h 24.1 km/h 69% 0.0 mm 19 W/m2
16:49 9.3 °C 3.7 °C 1005.1 hPa West 6.4 km/h 16.1 km/h 68% 0.0 mm 9 W/m2
16:54 9.3 °C 3.7 °C 1004.7 hPa NE 6.4 km/h 6.4 km/h 68% 0.0 mm 11 W/m2
16:59 9.3 °C 3.5 °C 1005.4 hPa NNW 7.9 km/h 19.3 km/h 67% 0.0 mm 0 W/m2
17:04 9 °C 4.4 °C 1005.4 hPa WNW 14.3 km/h 37 km/h 73% 0.2 mm 11 W/m2
17:09 8.4 °C 4.4 °C 1005.1 hPa NW 7.9 km/h 8 km/h 76% 0.2 mm 11 W/m2
17:14 8.1 °C 4.3 °C 1004.7 hPa WSW 3.2 km/h 12.9 km/h 77% 0.2 mm 7 W/m2
17:19 7.9 °C 4.3 °C 1005.1 hPa WSW 7.9 km/h 14.5 km/h 78% 0.2 mm 5 W/m2
17:25 7.9 °C 4.7 °C 1005.4 hPa NNW 3.2 km/h 9.7 km/h 80% 0.2 mm 0 W/m2
17:30 7.8 °C 4.6 °C 1005.1 hPa WNW 28.8 km/h 29 km/h 80% 0.5 mm 5 W/m2
17:35 7.7 °C 4.8 °C 1004.7 hPa West 3.2 km/h 6.4 km/h 82% 0.5 mm 0 W/m2
17:40 7.6 °C 4.9 °C 1004.7 hPa West 14.3 km/h 29 km/h 83% 0.5 mm 0 W/m2
17:45 7.5 °C 5 °C 1004.1 hPa West 9.7 km/h 17.7 km/h 84% 0.5 mm 0 W/m2
17:50 7.4 °C 4.9 °C 1004.1 hPa SW 9.7 km/h 19.3 km/h 84% 0.5 mm 0 W/m2
17:55 7.4 °C 5 °C 1004.1 hPa NE 4.7 km/h 27.4 km/h 85% 0.5 mm 0 W/m2
18:00 7.4 °C 5 °C 1004.1 hPa WNW 11.1 km/h 12.9 km/h 85% 0.5 mm 0 W/m2
18:05 7.4 °C 5.2 °C 1004.1 hPa NNW 4.7 km/h 27.4 km/h 86% 0.5 mm 0 W/m2
18:10 7.4 °C 5.2 °C 1003.7 hPa WSW 13 km/h 24.1 km/h 86% 0.5 mm 0 W/m2
18:15 7.5 °C 5.3 °C 1003.7 hPa NNW 1.4 km/h 9.7 km/h 86% 0.5 mm 0 W/m2
18:20 7.4 °C 5.4 °C 1003.7 hPa WNW 3.2 km/h 24.1 km/h 87% 1.0 mm 0 W/m2
18:25 7.4 °C 5.5 °C 1003.7 hPa WNW 3.2 km/h 8 km/h 88% 1.3 mm 0 W/m2
18:30 7.3 °C 5.4 °C 1003.0 hPa West 3.2 km/h 16.1 km/h 88% 1.0 mm 0 W/m2
18:35 7.2 °C 5.5 °C 1002.7 hPa NW 1.4 km/h 4.8 km/h 89% 1.3 mm 0 W/m2
18:40 7.2 °C 5.5 °C 1002.7 hPa Calm   1.6 km/h 89% 1.5 mm 0 W/m2
18:45 7.2 °C 5.7 °C 1002.4 hPa NE 6.4 km/h 6.4 km/h 90% 1.5 mm 0 W/m2
18:50 7.1 °C 5.6 °C 1002.4 hPa NNW 1.4 km/h 3.2 km/h 90% 1.8 mm 0 W/m2
18:55 7.1 °C 5.7 °C 1002.7 hPa West 16.3 km/h 16.1 km/h 91% 2.3 mm 0 W/m2
19:00 7.2 °C 5.8 °C 1003.4 hPa North 14.3 km/h 14.5 km/h 91% 3.3 mm 0 W/m2
19:05 7.1 °C 5.7 °C 1003.0 hPa WSW 3.2 km/h 9.7 km/h 91% 3.8 mm 0 W/m2
19:10 7 °C 5.8 °C 1003.0 hPa WNW 41.7 km/h 41.8 km/h 92% 4.1 mm 0 W/m2
19:15 7.6 °C 6.2 °C 1003.0 hPa West 16.3 km/h 27.4 km/h 91% 4.1 mm 0 W/m2
19:20 7.8 °C 6.3 °C 1002.7 hPa WNW 11.1 km/h 22.5 km/h 90% 3.6 mm 0 W/m2
19:25 7.9 °C 6.2 °C 1002.7 hPa West 20.9 km/h 24.1 km/h 89% 3.3 mm 0 W/m2
19:31 7.9 °C 6.2 °C 1002.7 hPa WNW 6.4 km/h 11.3 km/h 89% 3.3 mm 0 W/m2
19:36 7.9 °C 6.2 °C 1003.0 hPa WNW 11.1 km/h 16.1 km/h 89% 3.0 mm 0 W/m2
19:41 7.9 °C 6.2 °C 1003.4 hPa NW 9.7 km/h 17.7 km/h 89% 3.0 mm 0 W/m2
19:46 7.8 °C 6.3 °C 1003.4 hPa NNW 6.4 km/h 29 km/h 90% 3.3 mm 0 W/m2
19:51 7.5 °C 5.8 °C 1003.4 hPa SW 7.9 km/h 16.1 km/h 89% 2.8 mm 0 W/m2
19:56 7.3 °C 5.6 °C 1003.0 hPa WNW 16.3 km/h 37 km/h 89% 2.3 mm 0 W/m2
20:01 7.3 °C 5.4 °C 1002.7 hPa WSW 6.4 km/h 11.3 km/h 88% 1.5 mm 0 W/m2
20:06 7.2 °C 5.3 °C 1002.7 hPa WNW 7.9 km/h 35.4 km/h 88% 1.0 mm 0 W/m2
20:11 7.2 °C 5.5 °C 1002.4 hPa WNW 13 km/h 19.3 km/h 89% 0.5 mm 0 W/m2
20:16 7.2 °C 5.3 °C 1002.7 hPa WNW 13 km/h 20.9 km/h 88% 0.5 mm 0 W/m2
20:21 7.2 °C 5.3 °C 1002.7 hPa WNW 13 km/h 12.9 km/h 88% 0.5 mm 0 W/m2
20:26 7.2 °C 5.3 °C 1002.7 hPa WNW 13 km/h   88% 0.5 mm 0 W/m2
20:31 7.2 °C 5.3 °C 1002.7 hPa WNW 13 km/h   88% 0.5 mm 0 W/m2
20:36 7.2 °C 5.3 °C 1002.7 hPa Calm     88% 0.5 mm 0 W/m2
20:41 7.2 °C 5.5 °C 1002.7 hPa Calm     89% 0.5 mm 0 W/m2
20:46 7.2 °C 5.5 °C 1002.4 hPa Calm     89% 0.5 mm 0 W/m2
20:51 7.2 °C 5.7 °C 1002.7 hPa Calm     90% 0.5 mm 0 W/m2
20:56 7.2 °C 5.7 °C 1002.7 hPa Calm     90% 0.8 mm 0 W/m2
21:01 7.1 °C 5.7 °C 1002.7 hPa WSW 6.4 km/h 16.1 km/h 91% 1.5 mm 0 W/m2
21:06 6.9 °C 5.5 °C 1002.7 hPa NNW 14.3 km/h 32.2 km/h 91% 2.0 mm 0 W/m2
21:11 6.8 °C 5.4 °C 1002.7 hPa West 11.1 km/h 14.5 km/h 91% 2.3 mm 0 W/m2
21:16 6.8 °C 5.6 °C 1002.7 hPa West 9.7 km/h 22.5 km/h 92% 2.5 mm 0 W/m2
21:21 6.8 °C 5.6 °C 1002.4 hPa WNW 16.3 km/h 20.9 km/h 92% 2.8 mm 0 W/m2
21:26 6.8 °C 5.6 °C 1002.7 hPa SW 7.9 km/h 33.8 km/h 92% 3.3 mm 0 W/m2
21:31 6.8 °C 5.6 °C 1003.0 hPa West 19.5 km/h 33.8 km/h 92% 3.8 mm 0 W/m2
21:36 6.7 °C 5.3 °C 1002.4 hPa West 17.7 km/h 29 km/h 91% 4.3 mm 0 W/m2
21:41 6.4 °C 5 °C 1002.7 hPa West 13 km/h 16.1 km/h 91% 4.8 mm 0 W/m2
21:46 6.3 °C 4.9 °C 1002.7 hPa North 6.4 km/h 29 km/h 91% 4.8 mm 0 W/m2
21:51 6.3 °C 5.1 °C 1002.4 hPa West 6.4 km/h 12.9 km/h 92% 4.8 mm 0 W/m2
21:56 6.2 °C 5 °C 1002.4 hPa NNW 4.7 km/h 9.7 km/h 92% 4.6 mm 0 W/m2
22:01 6.2 °C 5 °C 1002.7 hPa WSW 16.3 km/h 19.3 km/h 92% 4.3 mm 0 W/m2
22:06 6.1 °C 4.7 °C 1002.4 hPa WNW 14.3 km/h 19.3 km/h 91% 3.6 mm 0 W/m2
22:11 6.1 °C 4.7 °C 1002.4 hPa NW 13 km/h 19.3 km/h 91% 3.3 mm 0 W/m2
22:16 6.1 °C 4.7 °C 1002.4 hPa West 11.1 km/h 27.4 km/h 91% 3.3 mm 0 W/m2
22:21 6.1 °C 4.9 °C 1002.4 hPa West 13 km/h 22.5 km/h 92% 3.3 mm 0 W/m2
22:26 6.2 °C 5 °C 1002.7 hPa West 22.7 km/h 32.2 km/h 92% 3.0 mm 0 W/m2
22:31 6.4 °C 5 °C 1002.7 hPa NW 25.9 km/h 38.6 km/h 91% 2.8 mm 0 W/m2
22:36 6.6 °C 5.1 °C 1002.7 hPa WNW 17.7 km/h 25.7 km/h 90% 2.3 mm 0 W/m2
22:41 6.6 °C 5.1 °C 1002.7 hPa West 14.3 km/h 24.1 km/h 90% 2.0 mm 0 W/m2
22:46 6.7 °C 5.2 °C 1002.7 hPa WNW 13 km/h 29 km/h 90% 1.8 mm 0 W/m2
22:51 6.7 °C 5.2 °C 1002.7 hPa WNW 13 km/h 27.4 km/h 90% 1.5 mm 0 W/m2
22:56 6.7 °C 5.2 °C 1002.7 hPa WNW 7.9 km/h 16.1 km/h 90% 1.5 mm 0 W/m2
23:01 6.7 °C 5.2 °C 1002.7 hPa West 13 km/h 25.7 km/h 90% 1.3 mm 0 W/m2
23:06 6.7 °C 5.2 °C 1002.7 hPa West 9.7 km/h 19.3 km/h 90% 1.3 mm 0 W/m2
23:11 6.7 °C 5.2 °C 1002.7 hPa West 11.1 km/h 12.9 km/h 90% 1.0 mm 0 W/m2
23:16 6.7 °C 5.2 °C 1003.0 hPa WNW 7.9 km/h 27.4 km/h 90% 0.8 mm 0 W/m2
23:21 6.8 °C 5.1 °C 1003.0 hPa WSW 25.9 km/h 25.7 km/h 89% 0.8 mm 0 W/m2
23:26 6.8 °C 5 °C 1003.4 hPa WSW 13 km/h 37 km/h 88% 0.5 mm 0 W/m2
23:32 6.8 °C 5 °C 1003.4 hPa WNW 13 km/h 25.7 km/h 88% 0.2 mm 0 W/m2
23:37 6.8 °C 4.8 °C 1003.0 hPa SE 4.7 km/h 35.4 km/h 87% 0.2 mm 0 W/m2
23:42 6.8 °C 4.8 °C 1003.0 hPa WNW 14.3 km/h 20.9 km/h 87% 0.0 mm 0 W/m2
23:47 6.8 °C 4.8 °C 1003.4 hPa WNW 16.3 km/h 27.4 km/h 87% 0.0 mm 0 W/m2
23:52 6.8 °C 4.6 °C 1003.4 hPa West 22.7 km/h 25.7 km/h 86% 0.0 mm 0 W/m2
23:57 6.8 °C 4.6 °C 1003.4 hPa WNW 16.3 km/h 22.5 km/h 86% 0.0 mm 0 W/m2
Juneau County Weather
Compliments of Weather Underground - 4 mb